Kansas City, Missouri
Traffic Map
Current Weather Conditions
Kansas City, Missouri
Overcast
Overcast
56°
Feels Like: 56°
Wind Chill: 56° Ceiling: 1200
Heat Index: 56° Visibility: 10mi
Dew Point: 51° Wind: 10mph
Humidity: 84% Direction: 170° (S)
Pressure: 29.66in Gusts: 0mph
Raw Report DataKMKC 230654Z 17009KT 10SM OVC012 13/11 A2966 RMK AO2 SLP042 T01330106
Traffic Incident Summary
Active as of:
Severity:
Category:
InformationThere was an issue retrieving the traffic information for this location. Please try a different location or try again shortly.
Advertisements
Track Severe Weather on mobile